ESCF/LPI METAR and TAF weather

Enter ICAO airport designator
Station Type Date Time Source
ESCF METAR 2020/07/14 16:50 UTC NOAA

ESCF 141650Z AUTO VRB02KT 9999 -SHRA FEW030/// OVC058/// 16/13 Q1013


Station Type Date Time Source
ESCF Decoded METAR 2020/07/14 16:50 UTC NOAA

Linkoping / Malmen, Sweden (ESCF) 58-24N 015-31E 117M
Jul 14, 2020 - 12:50 PM EDT / 2020.07.14 1650 UTC
Wind: Variable at 2 MPH (2 KT):0
Visibility: greater than 7 mile(s):0
Sky conditions: overcast
Weather: light rain showers
Temperature: 60 F (16 C)
Dew Point: 55 F (13 C)
Relative Humidity: 82%
Pressure (altimeter): 29.91 in. Hg (1013 hPa)
ob: ESCF 141650Z AUTO VRB02KT 9999 -SHRA FEW030/// OVC058/// 16/13 Q1013
cycle: 17

Station Type Date Time Source
ESCF TAF UTC NOAA

Error!

Example: see airport list